Rio Vista Municipal (O88)
Rio Vista, CA
Field Elevation: 23
Lat: 38°11.60N  Long: 121°42.22W
CTAF/Unicom Freq: 122.7250
   
     For Weather-by-Phone, call (707) 374-5396
Weather Advisories
2015-07-06   00:54 Z
Altimeter 29.85" Hg
Wind 230° @ 22 KT
Gusts 31 KT
Visibility 10 SM
Ceiling CLR
Temperature 24° C (75° F)
Dewpoint 14° C (57° F)
Relative Humidity 54%
Density Altitude 1,100 feet
Condensation Altitude 5,000 feet
Wind and Runways
Indicated Runway = 25
Headwind = 21 kt
Crosswind = 8 kt
History
 
 
 
More Info
All DigiWx sites map
NOAA Forecast
 
Airport IQ 5010
(DUC) Stack Farm
(CA37) Dominican
 
about DigiWx
 
FAA Disclaimer: The data displayed is for advisory purposes only and is not to be used for flight planning or operations. For official data, please call (707) 374-5396 to hear the current automated AWOS voice message.
  METAR O88 060054Z AUTO 23022G31KT VIS 10 SM CLR 24/14 A2985